If you wish to contribute or participate in the discussions about articles you are invited to join SKYbrary as a registered user

 Actions

Calvi-Sainte-Catherine Airport

From SKYbrary Wiki

LFKC
Airport
ICAO: LFKC – IATA: CLY
Summary
Name Calvi-Sainte-Catherine Airport
Region Europe
Territory France FR.gif
Location , Corse
Serving Calvi
Elevation 63.703 m
209 ft
209 ft63.703 m
Type medium airport
Coordinates 42° 31' 50.71" N, 8° 47' 35.48" E
Runways
Designator Length Width Surface ROPS
18/36 2310 m7,578.74 ft
40 m131.234 ft
CON yes/yes


METAR
Observation LFKC 252300Z AUTO 20005KT 9999 FEW019 21/19 Q1017
Station Calvi
Date/Time 25 August 2019 23:00:00
Wind direction 200°
Wind speed 05 kts
Lowest cloud amount few clouds
Temperature 21°C
Dew point 19°C
Humidity 88%
QNH 1017 hPa
Weather condition n/a